This is the latest recevied weather packets stored in our database for station/object DJ6OI-23. If no packets are shown the sender has not sent any weather packets the latest 10 day(s).
| Time | Temp. | Humidity | Pressure | Rain* | Wind** | Luminosity | Snow |
|---|---|---|---|---|---|---|---|
| 1777191157 | 9.44° C | 63% | 1005 hPa | 0 mm | - | - | - |
| 1777190222 | 8.89° C | 65% | 1005 hPa | 0 mm | - | - | - |
| 1777189287 | 8.89° C | 67% | 1005 hPa | 0 mm | - | - | - |
| 1777188352 | 8.33° C | 69% | 1004.8 hPa | 0 mm | - | - | - |
| 1777187418 | 8.33° C | 74% | 1004.8 hPa | 0 mm | - | - | - |
| 1777186483 | 7.22° C | 79% | 1004.8 hPa | 0 mm | - | - | - |
| 1777185548 | 6.11° C | 83% | 1004.7 hPa | 0 mm | - | - | - |
| 1777184613 | 5.56° C | 86% | 1004.6 hPa | 0 mm | - | - | - |
| 1777183678 | 4.44° C | 88% | 1004.5 hPa | 0 mm | - | - | - |
| 1777182743 | 3.89° C | 90% | 1004.5 hPa | 0 mm | - | - | - |
| 1777180873 | 3.33° C | 93% | 1004.1 hPa | 0 mm | - | - | - |
| 1777179938 | 2.22° C | 93% | 1003.9 hPa | 0 mm | - | - | - |
| 1777179003 | 1.67° C | 94% | 1003.7 hPa | 0 mm | - | - | - |
| 1777178068 | 1.11° C | 94% | 1003.5 hPa | 0 mm | - | - | - |
| 1777177134 | 1.11° C | 94% | 1003.3 hPa | 0 mm | - | - | - |
| 1777176199 | 1.11° C | 94% | 1003.1 hPa | 0 mm | - | - | - |
| 1777175264 | 1.11° C | 94% | 1003 hPa | 0 mm | - | - | - |
| 1777174329 | 1.67° C | 93% | 1002.9 hPa | 0 mm | - | - | - |
| 1777173394 | 1.67° C | 92% | 1002.7 hPa | 0 mm | - | - | - |
| 1777172459 | 1.67° C | 92% | 1002.5 hPa | 0 mm | - | - | - |
| 1777171524 | 2.22° C | 92% | 1002.3 hPa | 0 mm | - | - | - |
| 1777170589 | 2.22° C | 91% | 1002.1 hPa | 0 mm | - | - | - |
| 1777169654 | 2.78° C | 90% | 1001.9 hPa | 0 mm | - | - | - |
| 1777168719 | 3.33° C | 88% | 1001.7 hPa | 0 mm | - | - | - |
| 1777167784 | 3.33° C | 85% | 1001.6 hPa | 0 mm | - | - | - |
* Rain latest hour (hover to see other rain measurements)
** Current wind speed in m/s (hover to see current wind gust speed)